createdAt,value
2023-03-30T00:00:22.225Z,-5.94
2023-03-30T00:05:26.621Z,-5.95
2023-03-30T00:10:30.824Z,-6.00
2023-03-30T00:15:34.981Z,-5.97
2023-03-30T00:20:43.889Z,-5.91
2023-03-30T00:25:48.223Z,-6.42
2023-03-30T00:30:54.243Z,-6.02
2023-03-30T00:35:59.690Z,-6.01
2023-03-30T00:41:03.858Z,-6.06
2023-03-30T00:46:08.162Z,-6.07
2023-03-30T00:51:12.869Z,-5.98
2023-03-30T00:56:21.372Z,-6.00
2023-03-30T01:01:29.794Z,-6.07
2023-03-30T01:06:36.729Z,-5.92
2023-03-30T01:11:41.288Z,-6.07
2023-03-30T01:16:53.839Z,-6.00
2023-03-30T01:22:28.197Z,-6.00
2023-03-30T01:27:40.293Z,-6.09
2023-03-30T01:32:59.372Z,-6.13
2023-03-30T01:38:18.289Z,-6.17
2023-03-30T01:43:39.243Z,-6.27
2023-03-30T01:49:12.072Z,-6.26
2023-03-30T01:54:25.321Z,-6.20
2023-03-30T01:59:47.605Z,-6.18
2023-03-30T02:04:54.673Z,-6.08
2023-03-30T02:10:03.810Z,-5.96
2023-03-30T02:15:12.931Z,-5.93
2023-03-30T02:20:18.635Z,-5.70
2023-03-30T02:25:23.904Z,-5.28
2023-03-30T02:30:34.798Z,-5.23
2023-03-30T02:35:50.503Z,-5.30
2023-03-30T02:41:08.985Z,-5.44
2023-03-30T02:46:38.575Z,-5.81
2023-03-30T02:52:09.568Z,-5.28
2023-03-30T02:57:38.414Z,-5.35
2023-03-30T03:03:29.994Z,-5.37
2023-03-30T03:08:37.747Z,-5.01
2023-03-30T03:13:46.051Z,-4.71
2023-03-30T03:18:50.403Z,-4.65
2023-03-30T03:23:54.630Z,-4.58
2023-03-30T03:28:59.729Z,-4.53
2023-03-30T03:34:03.741Z,-4.63
2023-03-30T03:39:40.649Z,-4.40
2023-03-30T03:44:47.643Z,-4.68
2023-03-30T03:49:52.349Z,-4.60
2023-03-30T03:54:56.188Z,-4.04
2023-03-30T04:00:01.669Z,-4.02
2023-03-30T04:05:16.245Z,-4.02
2023-03-30T04:10:22.129Z,-4.18
2023-03-30T04:16:02.506Z,-4.20
2023-03-30T04:21:19.086Z,-4.40
2023-03-30T04:26:42.562Z,-4.18
2023-03-30T04:32:04.665Z,-4.31
2023-03-30T04:37:31.218Z,-4.05
2023-03-30T04:42:41.116Z,-3.57
2023-03-30T04:47:54.228Z,-3.37
2023-03-30T04:53:01.207Z,-3.64
2023-03-30T04:58:05.010Z,-3.14
2023-03-30T05:03:37.853Z,-2.69
2023-03-30T05:08:53.717Z,-2.45
2023-03-30T05:14:16.331Z,-3.09
2023-03-30T05:19:30.263Z,-2.75
2023-03-30T05:25:00.149Z,-3.70
2023-03-30T05:30:24.874Z,-3.70
2023-03-30T05:35:57.839Z,-2.84
2023-03-30T05:41:23.213Z,-2.27
2023-03-30T05:46:51.388Z,-2.81
2023-03-30T05:52:23.265Z,-2.35
2023-03-30T05:57:53.596Z,-2.61
2023-03-30T06:03:06.728Z,-3.00
2023-03-30T06:08:12.839Z,-2.88
2023-03-30T06:13:17.810Z,-3.01
2023-03-30T06:18:28.119Z,-2.54
2023-03-30T06:23:38.626Z,-2.76
2023-03-30T06:28:48.610Z,-2.73
2023-03-30T06:33:52.626Z,-2.84
2023-03-30T06:38:57.174Z,-3.17
2023-03-30T06:44:01.770Z,-2.57
2023-03-30T06:49:12.920Z,-2.25
2023-03-30T06:54:21.096Z,-2.31
2023-03-30T06:59:34.580Z,-2.57
2023-03-30T07:04:57.770Z,-1.76
2023-03-30T07:10:12.969Z,-1.84
2023-03-30T07:15:17.350Z,-1.74
2023-03-30T07:20:22.940Z,-1.50
2023-03-30T07:25:47.384Z,-1.54
2023-03-30T07:31:11.197Z,-1.83
2023-03-30T07:36:17.917Z,-2.01
2023-03-30T07:41:22.041Z,-1.19
2023-03-30T07:46:30.220Z,-1.15
2023-03-30T07:51:35.242Z,-1.19
2023-03-30T07:56:46.087Z,-0.74
2023-03-30T08:01:52.710Z,-0.66
2023-03-30T08:07:15.174Z,-0.60
2023-03-30T08:12:23.153Z,-0.70
2023-03-30T08:17:27.259Z,-0.83
2023-03-30T08:22:31.208Z,-1.36
2023-03-30T08:27:35.458Z,-0.92
2023-03-30T08:32:39.889Z,-1.30
2023-03-30T08:37:44.006Z,-1.51
2023-03-30T08:43:12.882Z,-1.90
2023-03-30T08:48:26.016Z,-2.01
2023-03-30T08:53:33.906Z,-1.92
2023-03-30T08:58:40.858Z,-2.06
2023-03-30T09:04:05.889Z,-2.12
2023-03-30T09:09:17.757Z,-2.11
2023-03-30T09:14:36.450Z,-2.17
2023-03-30T09:19:58.074Z,-2.14
2023-03-30T09:25:02.358Z,-2.39
2023-03-30T09:30:28.030Z,-2.32
2023-03-30T09:35:45.807Z,-1.96
2023-03-30T09:41:18.777Z,-1.54
2023-03-30T09:46:22.887Z,-1.54
2023-03-30T09:51:31.396Z,-1.66
2023-03-30T09:56:35.250Z,-1.39
2023-03-30T10:01:39.451Z,-1.70
2023-03-30T10:06:51.463Z,-1.97
2023-03-30T10:11:56.570Z,-2.18
2023-03-30T10:17:01.979Z,-2.17
2023-03-30T10:22:19.574Z,-2.34
2023-03-30T10:27:34.808Z,-2.44
2023-03-30T10:32:39.103Z,-2.51
2023-03-30T10:37:47.688Z,-2.59
2023-03-30T10:42:59.742Z,-2.81
2023-03-30T10:48:31.857Z,-2.95
2023-03-30T10:54:03.590Z,-2.93
2023-03-30T10:59:36.883Z,-2.95
2023-03-30T11:04:46.343Z,-3.00
2023-03-30T11:09:56.585Z,-3.08
2023-03-30T11:15:39.451Z,-3.08
2023-03-30T11:21:00.373Z,-3.02
2023-03-30T11:26:13.135Z,-2.84
2023-03-30T11:31:32.108Z,-2.92
2023-03-30T11:36:41.020Z,-3.02
2023-03-30T11:42:17.412Z,-3.07
2023-03-30T11:47:36.983Z,-3.15
2023-03-30T11:53:09.402Z,-3.24
2023-03-30T11:58:35.261Z,-3.33
2023-03-30T12:04:10.789Z,-3.75
2023-03-30T12:09:27.804Z,-3.43
2023-03-30T12:14:55.228Z,-3.49
2023-03-30T12:20:33.923Z,-3.74
2023-03-30T12:26:10.892Z,-3.73
2023-03-30T12:31:16.181Z,-3.84
2023-03-30T12:36:36.340Z,-3.94
2023-03-30T12:41:43.810Z,-4.01
2023-03-30T12:47:07.472Z,-4.11
2023-03-30T12:52:36.755Z,-4.16
2023-03-30T12:57:46.878Z,-4.24
2023-03-30T13:03:03.447Z,-4.30
2023-03-30T13:08:19.801Z,-4.34
2023-03-30T13:13:45.409Z,-4.38
2023-03-30T13:18:49.174Z,-4.45
2023-03-30T13:24:03.481Z,-4.50
2023-03-30T13:29:12.396Z,-4.51
2023-03-30T13:34:34.184Z,-4.55
2023-03-30T13:39:49.174Z,-4.63
2023-03-30T13:45:23.920Z,-4.69
2023-03-30T13:50:32.126Z,-5.01
2023-03-30T13:55:58.718Z,-4.76
2023-03-30T14:01:08.457Z,-4.80
2023-03-30T14:06:15.731Z,-4.86
2023-03-30T14:11:41.756Z,-4.88
2023-03-30T14:16:45.658Z,-4.90
2023-03-30T14:21:53.919Z,-4.92
2023-03-30T14:27:14.206Z,-4.90
2023-03-30T14:32:26.813Z,-4.92
2023-03-30T14:37:32.974Z,-4.96
2023-03-30T14:42:36.914Z,-5.00
2023-03-30T14:47:41.889Z,-5.26
2023-03-30T14:52:47.765Z,-5.01
2023-03-30T14:57:52.933Z,-5.06
2023-03-30T15:03:02.375Z,-5.13
2023-03-30T15:08:07.439Z,-5.18
2023-03-30T15:13:21.814Z,-5.41
2023-03-30T15:18:29.140Z,-5.34
2023-03-30T15:23:39.506Z,-5.39
2023-03-30T15:28:50.133Z,-5.36
2023-03-30T15:34:02.827Z,-5.40
2023-03-30T15:39:34.441Z,-5.52
2023-03-30T15:44:42.005Z,-5.47
2023-03-30T15:49:50.984Z,-5.51
2023-03-30T15:54:56.500Z,-5.53
2023-03-30T16:00:10.201Z,-5.53
2023-03-30T16:05:20.664Z,-5.59
2023-03-30T16:10:29.892Z,-5.61
2023-03-30T16:15:35.105Z,-5.59
2023-03-30T16:20:39.219Z,-5.60
2023-03-30T16:25:45.293Z,-5.65
2023-03-30T16:30:53.299Z,-5.68
2023-03-30T16:35:57.315Z,-5.70
2023-03-30T16:41:03.161Z,-5.70
2023-03-30T16:46:07.943Z,-5.73
2023-03-30T16:51:13.998Z,-5.77
2023-03-30T16:56:19.865Z,-5.79
2023-03-30T17:01:25.342Z,-5.83
2023-03-30T17:06:29.301Z,-5.94
2023-03-30T17:11:33.323Z,-5.95
2023-03-30T17:16:41.029Z,-5.95
2023-03-30T17:21:46.413Z,-5.94
2023-03-30T17:26:52.971Z,-6.02
2023-03-30T17:32:20.455Z,-6.18
2023-03-30T17:37:24.433Z,-6.11
2023-03-30T17:42:29.724Z,-6.08
2023-03-30T17:47:36.626Z,-6.06
2023-03-30T17:52:42.122Z,-6.02
2023-03-30T17:57:47.494Z,-6.00
2023-03-30T18:02:53.135Z,-6.02
2023-03-30T18:07:57.216Z,-6.11
2023-03-30T18:13:01.482Z,-6.06
2023-03-30T18:18:05.847Z,-6.10
2023-03-30T18:23:10.723Z,-6.51
2023-03-30T18:28:26.056Z,-6.24
2023-03-30T18:33:29.870Z,-6.24
2023-03-30T18:38:34.450Z,-6.21
2023-03-30T18:43:39.380Z,-6.28
2023-03-30T18:48:43.494Z,-6.41
2023-03-30T18:53:47.221Z,-6.46
2023-03-30T18:58:51.148Z,-6.56
2023-03-30T19:03:54.876Z,-6.57
2023-03-30T19:08:58.835Z,-6.52
2023-03-30T19:14:04.164Z,-6.63
2023-03-30T19:19:11.489Z,-6.70
2023-03-30T19:24:16.567Z,-6.86
2023-03-30T19:29:20.616Z,-6.88
2023-03-30T19:34:24.276Z,-6.92
2023-03-30T19:39:28.218Z,-6.96
2023-03-30T19:44:32.245Z,-6.98
2023-03-30T19:49:36.812Z,-6.98
2023-03-30T19:54:40.630Z,-7.36
2023-03-30T19:59:44.337Z,-7.10
2023-03-30T20:04:48.343Z,-7.15
2023-03-30T20:09:52.263Z,-7.10
2023-03-30T20:14:56.850Z,-7.12
2023-03-30T20:20:07.419Z,-7.26
2023-03-30T20:25:14.362Z,-7.14
2023-03-30T20:30:19.290Z,-7.14
2023-03-30T20:35:25.294Z,-7.14
2023-03-30T20:40:29.180Z,-7.12
2023-03-30T20:45:33.365Z,-7.13
2023-03-30T20:50:37.905Z,-6.90
2023-03-30T20:55:43.328Z,-6.87
2023-03-30T21:00:47.933Z,-6.93
2023-03-30T21:06:01.087Z,-7.04
2023-03-30T21:11:05.254Z,-7.43
2023-03-30T21:16:09.759Z,-7.31
2023-03-30T21:21:13.989Z,-7.46
2023-03-30T21:26:19.123Z,-7.55
2023-03-30T21:31:23.525Z,-7.74
2023-03-30T21:36:27.427Z,-7.76
2023-03-30T21:41:31.480Z,-8.00
2023-03-30T21:46:35.330Z,-8.14
2023-03-30T21:51:39.384Z,-8.28
2023-03-30T21:56:43.336Z,-8.32
2023-03-30T22:01:47.105Z,-8.36
2023-03-30T22:06:51.123Z,-8.41
2023-03-30T22:11:56.022Z,-8.43
2023-03-30T22:17:00.037Z,-8.47
2023-03-30T22:22:06.284Z,-8.69
2023-03-30T22:27:10.218Z,-8.72
2023-03-30T22:32:14.725Z,-8.85
2023-03-30T22:37:18.471Z,-8.79
2023-03-30T22:42:23.289Z,-8.94
2023-03-30T22:47:27.941Z,-8.96
2023-03-30T22:52:32.682Z,-9.05
2023-03-30T22:57:36.780Z,-9.18
2023-03-30T23:02:41.253Z,-9.28
2023-03-30T23:07:46.801Z,-9.42
2023-03-30T23:12:50.729Z,-9.53
2023-03-30T23:17:54.534Z,-9.61
2023-03-30T23:22:58.545Z,-9.64
2023-03-30T23:28:04.246Z,-9.64
2023-03-30T23:33:28.327Z,-9.67
2023-03-30T23:38:32.746Z,-9.87
2023-03-30T23:43:36.799Z,-9.88
2023-03-30T23:48:41.183Z,-10.01
2023-03-30T23:53:44.950Z,-10.20
2023-03-30T23:58:48.884Z,-10.27
